createdAt,value
2019-03-12T00:00:04.860Z,69.8
2019-03-12T00:15:03.628Z,69.4
2019-03-12T00:30:11.734Z,69.4
2019-03-12T00:45:09.300Z,68.2
2019-03-12T01:00:12.305Z,67.6
2019-03-12T01:15:08.196Z,66.9
2019-03-12T01:32:14.398Z,66.6
2019-03-12T01:45:06.841Z,67.2
2019-03-12T02:00:09.635Z,66.9
2019-03-12T02:15:12.930Z,67.1
2019-03-12T02:34:25.689Z,65.9
2019-03-12T02:45:08.896Z,65.6
2019-03-12T03:00:08.754Z,64.9
2019-03-12T03:17:16.208Z,65.3
2019-03-12T03:30:11.517Z,65.2
2019-03-12T03:45:08.826Z,66.4
2019-03-12T04:00:08.449Z,68.3
2019-03-12T04:15:03.907Z,67.6
2019-03-12T04:32:15.553Z,70
2019-03-12T04:45:05.389Z,70.1
2019-03-12T05:00:07.700Z,71.1
2019-03-12T05:17:14.877Z,70.5
2019-03-12T05:30:05.934Z,71.9
2019-03-12T05:45:06.394Z,71.6
2019-03-12T06:02:16.194Z,71.5
2019-03-12T06:17:23.645Z,72.2
2019-03-12T06:30:11.257Z,71.8
2019-03-12T06:47:15.384Z,71.3
2019-03-12T07:02:16.568Z,69.6
2019-03-12T07:15:12.946Z,68.7
2019-03-12T07:30:08.042Z,67.9
2019-03-12T07:45:11.260Z,67.3
2019-03-12T08:02:16.889Z,66.2
2019-03-12T08:17:18.003Z,64.4
2019-03-12T08:32:12.985Z,60
2019-03-12T08:45:16.477Z,56.4
2019-03-12T09:00:10.433Z,55.3
2019-03-12T09:15:09.255Z,52
2019-03-12T09:30:07.013Z,51.8
2019-03-12T09:45:06.418Z,51.4
2019-03-12T10:02:13.810Z,49.2
2019-03-12T10:15:09.741Z,50
2019-03-12T10:30:09.649Z,48
2019-03-12T10:45:07.560Z,48
2019-03-12T11:00:04.508Z,46
2019-03-12T11:15:11.163Z,49
2019-03-12T11:30:10.350Z,48.1
2019-03-12T11:45:20.537Z,45.9
2019-03-12T12:02:14.349Z,45.1
2019-03-12T12:15:08.486Z,48
2019-03-12T12:30:06.843Z,43.8
2019-03-12T12:45:07.697Z,46
2019-03-12T13:02:14.712Z,43.3
2019-03-12T13:17:17.878Z,38.3
2019-03-12T13:30:04.235Z,36.4
2019-03-12T14:00:04.725Z,33.7
2019-03-12T14:15:05.079Z,32.5
2019-03-12T14:30:03.548Z,33
2019-03-12T14:47:22.552Z,32.4
2019-03-12T15:00:08.174Z,32.4
2019-03-12T15:15:06.456Z,35.4
2019-03-12T15:30:03.607Z,28.7
2019-03-12T15:45:10.336Z,30.7
2019-03-12T16:00:09.354Z,32.4
2019-03-12T16:15:07.779Z,30.7
2019-03-12T16:34:27.015Z,33.8
2019-03-12T16:45:11.922Z,38.8
2019-03-12T17:00:09.065Z,45.7
2019-03-12T17:17:17.395Z,47
2019-03-12T17:32:14.362Z,45.5
2019-03-12T17:45:05.466Z,43.3
2019-03-12T18:00:07.857Z,47.3
2019-03-12T18:15:08.248Z,45.7
2019-03-12T18:32:14.787Z,46.9
2019-03-12T18:45:05.925Z,45.6
2019-03-12T19:00:06.532Z,46.5
2019-03-12T19:15:09.763Z,48
2019-03-12T19:30:04.341Z,47.5
2019-03-12T19:45:06.407Z,50.9
2019-03-12T20:00:03.194Z,49.6
2019-03-12T20:15:12.668Z,50.1
2019-03-12T20:30:06.865Z,53.7
2019-03-12T20:45:10.854Z,54.3
2019-03-12T21:15:04.878Z,51.4
2019-03-12T21:32:17.993Z,52.6
2019-03-12T21:45:10.326Z,52.4
2019-03-12T22:00:10.655Z,47.1
2019-03-12T22:19:32.310Z,43.7
2019-03-12T22:30:10.381Z,44.5
2019-03-12T22:45:10.257Z,43.3
2019-03-12T23:00:09.959Z,43.2
2019-03-12T23:19:28.598Z,45.1
2019-03-12T23:32:14.637Z,43.2
2019-03-12T23:49:28.790Z,42.7
